sensor_id;sensor_type;location;lat;lon;timestamp;P1;durP1;ratioP1;P2;durP2;ratioP2
13204;SDS011;6667;52.634;9.226;2024-03-22T00:01:52;16.80;;;10.03;;
13204;SDS011;6667;52.634;9.226;2024-03-22T00:04:19;14.77;;;10.03;;
13204;SDS011;6667;52.634;9.226;2024-03-22T00:06:45;15.33;;;10.40;;
13204;SDS011;6667;52.634;9.226;2024-03-22T00:09:13;15.33;;;10.23;;
13204;SDS011;6667;52.634;9.226;2024-03-22T00:11:39;18.07;;;11.30;;
13204;SDS011;6667;52.634;9.226;2024-03-22T00:14:07;19.70;;;11.23;;
13204;SDS011;6667;52.634;9.226;2024-03-22T00:16:32;18.33;;;11.83;;
13204;SDS011;6667;52.634;9.226;2024-03-22T00:19:01;18.63;;;11.40;;
13204;SDS011;6667;52.634;9.226;2024-03-22T00:21:26;17.23;;;12.17;;
13204;SDS011;6667;52.634;9.226;2024-03-22T00:23:54;16.67;;;11.23;;
13204;SDS011;6667;52.634;9.226;2024-03-22T00:26:20;18.37;;;11.40;;
13204;SDS011;6667;52.634;9.226;2024-03-22T00:28:46;16.27;;;11.30;;
13204;SDS011;6667;52.634;9.226;2024-03-22T00:31:12;20.50;;;12.33;;
13204;SDS011;6667;52.634;9.226;2024-03-22T00:33:39;20.33;;;13.33;;
13204;SDS011;6667;52.634;9.226;2024-03-22T00:36:06;16.43;;;11.33;;
13204;SDS011;6667;52.634;9.226;2024-03-22T00:38:34;18.03;;;12.37;;
13204;SDS011;6667;52.634;9.226;2024-03-22T00:40:59;16.73;;;11.90;;
13204;SDS011;6667;52.634;9.226;2024-03-22T00:43:26;22.10;;;12.80;;
13204;SDS011;6667;52.634;9.226;2024-03-22T00:45:52;19.53;;;13.23;;
13204;SDS011;6667;52.634;9.226;2024-03-22T00:48:18;23.50;;;13.60;;
13204;SDS011;6667;52.634;9.226;2024-03-22T00:50:44;20.63;;;13.63;;
13204;SDS011;6667;52.634;9.226;2024-03-22T00:53:12;20.10;;;13.47;;
13204;SDS011;6667;52.634;9.226;2024-03-22T00:55:38;24.37;;;14.43;;
13204;SDS011;6667;52.634;9.226;2024-03-22T00:58:04;22.40;;;14.60;;
13204;SDS011;6667;52.634;9.226;2024-03-22T01:00:30;21.83;;;15.17;;
13204;SDS011;6667;52.634;9.226;2024-03-22T01:02:57;25.00;;;15.40;;
13204;SDS011;6667;52.634;9.226;2024-03-22T01:05:23;25.67;;;15.07;;
13204;SDS011;6667;52.634;9.226;2024-03-22T01:07:51;24.83;;;14.77;;
13204;SDS011;6667;52.634;9.226;2024-03-22T01:10:18;22.27;;;15.07;;
13204;SDS011;6667;52.634;9.226;2024-03-22T01:12:44;24.00;;;15.77;;
13204;SDS011;6667;52.634;9.226;2024-03-22T01:15:10;25.70;;;14.70;;
13204;SDS011;6667;52.634;9.226;2024-03-22T01:17:36;25.87;;;15.13;;
13204;SDS011;6667;52.634;9.226;2024-03-22T01:20:02;22.57;;;14.73;;
13204;SDS011;6667;52.634;9.226;2024-03-22T01:22:29;23.93;;;15.63;;
13204;SDS011;6667;52.634;9.226;2024-03-22T01:24:55;25.87;;;16.03;;
13204;SDS011;6667;52.634;9.226;2024-03-22T01:27:23;22.27;;;15.30;;
13204;SDS011;6667;52.634;9.226;2024-03-22T01:29:49;25.43;;;14.97;;
13204;SDS011;6667;52.634;9.226;2024-03-22T01:32:15;23.53;;;15.30;;
13204;SDS011;6667;52.634;9.226;2024-03-22T01:34:41;24.63;;;15.27;;
13204;SDS011;6667;52.634;9.226;2024-03-22T01:37:08;25.60;;;16.30;;
13204;SDS011;6667;52.634;9.226;2024-03-22T01:39:34;24.03;;;15.80;;
13204;SDS011;6667;52.634;9.226;2024-03-22T01:42:00;24.07;;;15.80;;
13204;SDS011;6667;52.634;9.226;2024-03-22T01:44:28;27.40;;;16.63;;
13204;SDS011;6667;52.634;9.226;2024-03-22T01:46:57;26.37;;;15.83;;
13204;SDS011;6667;52.634;9.226;2024-03-22T01:49:23;24.67;;;16.50;;
13204;SDS011;6667;52.634;9.226;2024-03-22T01:51:51;28.83;;;17.00;;
13204;SDS011;6667;52.634;9.226;2024-03-22T01:54:17;26.90;;;15.57;;
13204;SDS011;6667;52.634;9.226;2024-03-22T01:56:46;28.67;;;16.90;;
13204;SDS011;6667;52.634;9.226;2024-03-22T01:59:12;30.23;;;17.90;;
13204;SDS011;6667;52.634;9.226;2024-03-22T02:01:40;29.80;;;16.57;;
13204;SDS011;6667;52.634;9.226;2024-03-22T02:04:07;29.57;;;16.43;;
13204;SDS011;6667;52.634;9.226;2024-03-22T02:06:33;28.70;;;17.20;;
13204;SDS011;6667;52.634;9.226;2024-03-22T02:08:59;26.83;;;17.17;;
13204;SDS011;6667;52.634;9.226;2024-03-22T02:11:26;28.57;;;17.00;;
13204;SDS011;6667;52.634;9.226;2024-03-22T02:13:52;32.97;;;18.10;;
13204;SDS011;6667;52.634;9.226;2024-03-22T02:16:19;30.50;;;17.73;;
13204;SDS011;6667;52.634;9.226;2024-03-22T02:18:45;29.07;;;18.13;;
13204;SDS011;6667;52.634;9.226;2024-03-22T02:21:12;26.87;;;17.17;;
13204;SDS011;6667;52.634;9.226;2024-03-22T02:23:40;29.73;;;18.13;;
13204;SDS011;6667;52.634;9.226;2024-03-22T02:26:07;33.57;;;19.73;;
13204;SDS011;6667;52.634;9.226;2024-03-22T02:28:33;34.90;;;19.93;;
13204;SDS011;6667;52.634;9.226;2024-03-22T02:31:00;30.43;;;19.47;;
13204;SDS011;6667;52.634;9.226;2024-03-22T02:33:27;31.23;;;19.30;;
13204;SDS011;6667;52.634;9.226;2024-03-22T02:35:53;33.03;;;19.77;;
13204;SDS011;6667;52.634;9.226;2024-03-22T02:38:19;35.27;;;20.87;;
13204;SDS011;6667;52.634;9.226;2024-03-22T02:40:48;33.63;;;19.60;;
13204;SDS011;6667;52.634;9.226;2024-03-22T02:43:14;33.43;;;20.50;;
13204;SDS011;6667;52.634;9.226;2024-03-22T02:45:42;35.87;;;21.83;;
13204;SDS011;6667;52.634;9.226;2024-03-22T02:48:08;40.70;;;22.43;;
13204;SDS011;6667;52.634;9.226;2024-03-22T02:50:35;38.80;;;22.67;;
13204;SDS011;6667;52.634;9.226;2024-03-22T02:53:01;36.20;;;22.60;;
13204;SDS011;6667;52.634;9.226;2024-03-22T02:55:27;35.37;;;20.90;;
13204;SDS011;6667;52.634;9.226;2024-03-22T02:57:55;37.80;;;22.27;;
13204;SDS011;6667;52.634;9.226;2024-03-22T03:00:22;37.53;;;22.77;;
13204;SDS011;6667;52.634;9.226;2024-03-22T03:02:48;38.83;;;23.70;;
13204;SDS011;6667;52.634;9.226;2024-03-22T03:05:15;41.47;;;23.17;;
13204;SDS011;6667;52.634;9.226;2024-03-22T03:07:41;35.00;;;21.70;;
13204;SDS011;6667;52.634;9.226;2024-03-22T03:10:07;41.30;;;23.27;;
13204;SDS011;6667;52.634;9.226;2024-03-22T03:12:33;35.53;;;22.67;;
13204;SDS011;6667;52.634;9.226;2024-03-22T03:15:01;40.20;;;23.87;;
13204;SDS011;6667;52.634;9.226;2024-03-22T03:17:27;39.77;;;23.07;;
13204;SDS011;6667;52.634;9.226;2024-03-22T03:19:54;39.50;;;23.20;;
13204;SDS011;6667;52.634;9.226;2024-03-22T03:22:20;39.67;;;22.93;;
13204;SDS011;6667;52.634;9.226;2024-03-22T03:24:46;38.70;;;22.70;;
13204;SDS011;6667;52.634;9.226;2024-03-22T03:27:12;38.80;;;23.33;;
13204;SDS011;6667;52.634;9.226;2024-03-22T03:29:38;39.33;;;23.83;;
13204;SDS011;6667;52.634;9.226;2024-03-22T03:32:05;38.10;;;22.57;;
13204;SDS011;6667;52.634;9.226;2024-03-22T03:34:32;43.70;;;25.07;;
13204;SDS011;6667;52.634;9.226;2024-03-22T03:36:58;43.43;;;24.83;;
13204;SDS011;6667;52.634;9.226;2024-03-22T03:39:26;42.23;;;24.83;;
13204;SDS011;6667;52.634;9.226;2024-03-22T03:41:51;50.00;;;26.07;;
13204;SDS011;6667;52.634;9.226;2024-03-22T03:44:18;45.47;;;25.50;;
13204;SDS011;6667;52.634;9.226;2024-03-22T03:46:44;41.90;;;24.30;;
13204;SDS011;6667;52.634;9.226;2024-03-22T03:49:12;46.47;;;26.10;;
13204;SDS011;6667;52.634;9.226;2024-03-22T03:51:37;42.00;;;24.37;;
13204;SDS011;6667;52.634;9.226;2024-03-22T03:54:04;46.93;;;25.60;;
13204;SDS011;6667;52.634;9.226;2024-03-22T03:56:30;46.53;;;25.10;;
13204;SDS011;6667;52.634;9.226;2024-03-22T03:58:57;47.30;;;26.27;;
13204;SDS011;6667;52.634;9.226;2024-03-22T04:01:22;42.97;;;24.60;;
13204;SDS011;6667;52.634;9.226;2024-03-22T04:03:49;49.30;;;27.20;;
13204;SDS011;6667;52.634;9.226;2024-03-22T04:06:16;48.97;;;25.30;;
13204;SDS011;6667;52.634;9.226;2024-03-22T04:08:43;50.50;;;27.23;;
13204;SDS011;6667;52.634;9.226;2024-03-22T04:11:09;48.57;;;26.93;;
13204;SDS011;6667;52.634;9.226;2024-03-22T04:13:36;51.40;;;25.87;;
13204;SDS011;6667;52.634;9.226;2024-03-22T04:16:02;52.07;;;27.93;;
13204;SDS011;6667;52.634;9.226;2024-03-22T04:18:30;50.83;;;27.47;;
13204;SDS011;6667;52.634;9.226;2024-03-22T04:20:56;53.80;;;28.57;;
13204;SDS011;6667;52.634;9.226;2024-03-22T04:23:25;54.30;;;29.07;;
13204;SDS011;6667;52.634;9.226;2024-03-22T04:25:51;54.10;;;29.27;;
13204;SDS011;6667;52.634;9.226;2024-03-22T04:28:19;56.23;;;29.47;;
13204;SDS011;6667;52.634;9.226;2024-03-22T04:30:53;52.87;;;29.40;;
13204;SDS011;6667;52.634;9.226;2024-03-22T04:33:21;53.40;;;29.73;;
13204;SDS011;6667;52.634;9.226;2024-03-22T04:35:47;51.77;;;28.90;;
13204;SDS011;6667;52.634;9.226;2024-03-22T04:38:13;50.23;;;28.40;;
13204;SDS011;6667;52.634;9.226;2024-03-22T04:40:41;57.30;;;29.57;;
13204;SDS011;6667;52.634;9.226;2024-03-22T04:43:08;53.20;;;29.13;;
13204;SDS011;6667;52.634;9.226;2024-03-22T04:45:35;61.83;;;31.93;;
13204;SDS011;6667;52.634;9.226;2024-03-22T04:48:02;56.70;;;29.80;;
13204;SDS011;6667;52.634;9.226;2024-03-22T04:50:29;61.20;;;30.63;;
13204;SDS011;6667;52.634;9.226;2024-03-22T04:52:56;62.73;;;30.47;;
13204;SDS011;6667;52.634;9.226;2024-03-22T04:55:22;58.60;;;29.80;;
13204;SDS011;6667;52.634;9.226;2024-03-22T04:57:51;59.37;;;28.97;;
13204;SDS011;6667;52.634;9.226;2024-03-22T05:00:17;61.23;;;29.63;;
13204;SDS011;6667;52.634;9.226;2024-03-22T05:02:44;59.83;;;29.80;;
13204;SDS011;6667;52.634;9.226;2024-03-22T05:05:10;63.27;;;30.87;;
13204;SDS011;6667;52.634;9.226;2024-03-22T05:07:37;56.37;;;29.50;;
13204;SDS011;6667;52.634;9.226;2024-03-22T05:10:03;61.43;;;29.33;;
13204;SDS011;6667;52.634;9.226;2024-03-22T05:12:30;52.73;;;27.77;;
13204;SDS011;6667;52.634;9.226;2024-03-22T05:14:57;53.80;;;30.03;;
13204;SDS011;6667;52.634;9.226;2024-03-22T05:17:24;55.00;;;30.00;;
13204;SDS011;6667;52.634;9.226;2024-03-22T05:19:50;63.40;;;29.83;;
13204;SDS011;6667;52.634;9.226;2024-03-22T05:22:17;57.30;;;28.73;;
13204;SDS011;6667;52.634;9.226;2024-03-22T05:24:45;54.23;;;28.50;;
13204;SDS011;6667;52.634;9.226;2024-03-22T05:27:11;53.93;;;27.00;;
13204;SDS011;6667;52.634;9.226;2024-03-22T05:29:37;62.33;;;31.00;;
13204;SDS011;6667;52.634;9.226;2024-03-22T05:32:06;53.77;;;28.67;;
13204;SDS011;6667;52.634;9.226;2024-03-22T05:34:32;60.33;;;29.70;;
13204;SDS011;6667;52.634;9.226;2024-03-22T05:36:58;61.63;;;29.10;;
13204;SDS011;6667;52.634;9.226;2024-03-22T05:39:25;52.67;;;28.27;;
13204;SDS011;6667;52.634;9.226;2024-03-22T05:41:50;53.83;;;28.90;;
13204;SDS011;6667;52.634;9.226;2024-03-22T05:44:17;57.13;;;30.97;;
13204;SDS011;6667;52.634;9.226;2024-03-22T05:46:43;59.50;;;29.67;;
13204;SDS011;6667;52.634;9.226;2024-03-22T05:49:11;56.50;;;28.97;;
13204;SDS011;6667;52.634;9.226;2024-03-22T05:51:37;57.90;;;30.43;;
13204;SDS011;6667;52.634;9.226;2024-03-22T05:54:04;52.33;;;28.43;;
13204;SDS011;6667;52.634;9.226;2024-03-22T05:56:29;59.77;;;29.43;;
13204;SDS011;6667;52.634;9.226;2024-03-22T05:58:56;59.30;;;31.00;;
13204;SDS011;6667;52.634;9.226;2024-03-22T06:01:22;65.33;;;30.47;;
13204;SDS011;6667;52.634;9.226;2024-03-22T06:03:48;60.83;;;29.53;;
13204;SDS011;6667;52.634;9.226;2024-03-22T06:06:15;54.70;;;29.40;;
13204;SDS011;6667;52.634;9.226;2024-03-22T06:08:42;64.97;;;29.40;;
13204;SDS011;6667;52.634;9.226;2024-03-22T06:11:10;62.63;;;28.80;;
13204;SDS011;6667;52.634;9.226;2024-03-22T06:13:36;63.43;;;29.67;;
13204;SDS011;6667;52.634;9.226;2024-03-22T06:16:03;54.93;;;28.63;;
13204;SDS011;6667;52.634;9.226;2024-03-22T06:18:30;61.60;;;29.00;;
13204;SDS011;6667;52.634;9.226;2024-03-22T06:20:56;57.87;;;26.50;;
13204;SDS011;6667;52.634;9.226;2024-03-22T06:23:23;67.07;;;30.70;;
13204;SDS011;6667;52.634;9.226;2024-03-22T06:25:53;55.70;;;28.87;;
13204;SDS011;6667;52.634;9.226;2024-03-22T06:28:19;61.13;;;27.43;;
13204;SDS011;6667;52.634;9.226;2024-03-22T06:30:46;53.67;;;27.80;;
13204;SDS011;6667;52.634;9.226;2024-03-22T06:33:11;54.10;;;29.70;;
13204;SDS011;6667;52.634;9.226;2024-03-22T06:35:38;60.33;;;28.30;;
13204;SDS011;6667;52.634;9.226;2024-03-22T06:38:04;53.23;;;28.63;;
13204;SDS011;6667;52.634;9.226;2024-03-22T06:40:32;57.30;;;29.17;;
13204;SDS011;6667;52.634;9.226;2024-03-22T06:42:58;56.13;;;28.60;;
13204;SDS011;6667;52.634;9.226;2024-03-22T06:45:24;58.27;;;29.67;;
13204;SDS011;6667;52.634;9.226;2024-03-22T06:47:50;63.53;;;30.10;;
13204;SDS011;6667;52.634;9.226;2024-03-22T06:50:17;60.43;;;31.40;;
13204;SDS011;6667;52.634;9.226;2024-03-22T06:52:44;61.70;;;28.33;;
13204;SDS011;6667;52.634;9.226;2024-03-22T06:55:10;57.27;;;30.73;;
13204;SDS011;6667;52.634;9.226;2024-03-22T06:57:37;54.57;;;26.83;;
13204;SDS011;6667;52.634;9.226;2024-03-22T07:00:04;56.87;;;27.33;;
13204;SDS011;6667;52.634;9.226;2024-03-22T07:02:32;50.10;;;26.87;;
13204;SDS011;6667;52.634;9.226;2024-03-22T07:04:59;47.63;;;24.90;;
13204;SDS011;6667;52.634;9.226;2024-03-22T07:07:25;50.33;;;25.43;;
13204;SDS011;6667;52.634;9.226;2024-03-22T07:09:51;54.20;;;26.63;;
13204;SDS011;6667;52.634;9.226;2024-03-22T07:12:17;52.03;;;25.50;;
13204;SDS011;6667;52.634;9.226;2024-03-22T07:14:45;51.37;;;24.43;;
13204;SDS011;6667;52.634;9.226;2024-03-22T07:17:11;52.63;;;23.87;;
13204;SDS011;6667;52.634;9.226;2024-03-22T07:19:37;51.33;;;25.27;;
13204;SDS011;6667;52.634;9.226;2024-03-22T07:22:03;53.17;;;24.87;;
13204;SDS011;6667;52.634;9.226;2024-03-22T07:24:30;51.47;;;24.17;;
13204;SDS011;6667;52.634;9.226;2024-03-22T07:26:55;43.93;;;21.93;;
13204;SDS011;6667;52.634;9.226;2024-03-22T07:29:22;49.97;;;24.53;;
13204;SDS011;6667;52.634;9.226;2024-03-22T07:31:49;47.57;;;23.97;;
13204;SDS011;6667;52.634;9.226;2024-03-22T07:34:16;44.53;;;23.70;;
13204;SDS011;6667;52.634;9.226;2024-03-22T07:36:41;49.00;;;24.73;;
13204;SDS011;6667;52.634;9.226;2024-03-22T07:39:08;47.03;;;24.33;;
13204;SDS011;6667;52.634;9.226;2024-03-22T07:41:34;47.17;;;24.40;;
13204;SDS011;6667;52.634;9.226;2024-03-22T07:44:01;50.13;;;23.50;;
13204;SDS011;6667;52.634;9.226;2024-03-22T07:46:27;46.80;;;23.67;;
13204;SDS011;6667;52.634;9.226;2024-03-22T07:48:55;47.67;;;24.47;;
13204;SDS011;6667;52.634;9.226;2024-03-22T07:51:21;44.47;;;23.47;;
13204;SDS011;6667;52.634;9.226;2024-03-22T07:53:48;45.90;;;23.03;;
13204;SDS011;6667;52.634;9.226;2024-03-22T07:56:14;45.60;;;23.13;;
13204;SDS011;6667;52.634;9.226;2024-03-22T07:58:41;48.67;;;24.40;;
13204;SDS011;6667;52.634;9.226;2024-03-22T08:01:08;43.77;;;25.00;;
13204;SDS011;6667;52.634;9.226;2024-03-22T08:03:35;46.00;;;24.77;;
13204;SDS011;6667;52.634;9.226;2024-03-22T08:06:02;53.13;;;26.13;;
13204;SDS011;6667;52.634;9.226;2024-03-22T08:08:29;51.83;;;25.50;;
13204;SDS011;6667;52.634;9.226;2024-03-22T08:10:55;44.40;;;24.73;;
13204;SDS011;6667;52.634;9.226;2024-03-22T08:13:21;55.67;;;26.57;;
13204;SDS011;6667;52.634;9.226;2024-03-22T08:15:47;43.83;;;24.80;;
13204;SDS011;6667;52.634;9.226;2024-03-22T08:18:14;46.87;;;24.03;;
13204;SDS011;6667;52.634;9.226;2024-03-22T08:20:39;48.13;;;24.60;;
13204;SDS011;6667;52.634;9.226;2024-03-22T08:23:07;52.30;;;26.47;;
13204;SDS011;6667;52.634;9.226;2024-03-22T08:25:33;52.07;;;26.37;;
13204;SDS011;6667;52.634;9.226;2024-03-22T08:28:00;50.50;;;25.30;;
13204;SDS011;6667;52.634;9.226;2024-03-22T08:30:25;54.37;;;27.33;;
13204;SDS011;6667;52.634;9.226;2024-03-22T08:32:52;51.60;;;26.27;;
13204;SDS011;6667;52.634;9.226;2024-03-22T08:35:18;46.23;;;26.07;;
13204;SDS011;6667;52.634;9.226;2024-03-22T08:37:45;51.50;;;27.33;;
13204;SDS011;6667;52.634;9.226;2024-03-22T08:40:12;51.53;;;27.27;;
13204;SDS011;6667;52.634;9.226;2024-03-22T08:42:39;51.53;;;27.37;;
13204;SDS011;6667;52.634;9.226;2024-03-22T08:45:07;55.47;;;27.93;;
13204;SDS011;6667;52.634;9.226;2024-03-22T08:47:34;50.60;;;28.90;;
13204;SDS011;6667;52.634;9.226;2024-03-22T08:50:00;48.10;;;29.33;;
13204;SDS011;6667;52.634;9.226;2024-03-22T08:52:27;51.87;;;28.73;;
13204;SDS011;6667;52.634;9.226;2024-03-22T08:54:52;54.30;;;27.57;;
13204;SDS011;6667;52.634;9.226;2024-03-22T08:57:20;49.23;;;26.33;;
13204;SDS011;6667;52.634;9.226;2024-03-22T08:59:47;50.27;;;27.67;;
13204;SDS011;6667;52.634;9.226;2024-03-22T09:02:13;53.93;;;28.63;;
13204;SDS011;6667;52.634;9.226;2024-03-22T09:04:39;54.57;;;28.03;;
13204;SDS011;6667;52.634;9.226;2024-03-22T09:07:06;51.30;;;29.13;;
13204;SDS011;6667;52.634;9.226;2024-03-22T09:09:32;53.73;;;29.77;;
13204;SDS011;6667;52.634;9.226;2024-03-22T09:11:59;58.87;;;30.27;;
13204;SDS011;6667;52.634;9.226;2024-03-22T09:14:25;53.23;;;28.37;;
13204;SDS011;6667;52.634;9.226;2024-03-22T09:16:52;60.33;;;30.53;;
13204;SDS011;6667;52.634;9.226;2024-03-22T09:19:18;54.23;;;30.33;;
13204;SDS011;6667;52.634;9.226;2024-03-22T09:21:45;66.70;;;32.87;;
13204;SDS011;6667;52.634;9.226;2024-03-22T09:24:11;64.17;;;30.97;;
13204;SDS011;6667;52.634;9.226;2024-03-22T09:26:37;60.83;;;31.97;;
13204;SDS011;6667;52.634;9.226;2024-03-22T09:29:03;61.13;;;31.50;;
13204;SDS011;6667;52.634;9.226;2024-03-22T09:31:31;61.43;;;31.20;;
13204;SDS011;6667;52.634;9.226;2024-03-22T09:33:58;56.13;;;30.87;;
13204;SDS011;6667;52.634;9.226;2024-03-22T09:36:24;60.83;;;31.83;;
13204;SDS011;6667;52.634;9.226;2024-03-22T09:38:50;60.87;;;32.30;;
13204;SDS011;6667;52.634;9.226;2024-03-22T09:41:17;63.33;;;32.80;;
13204;SDS011;6667;52.634;9.226;2024-03-22T09:43:49;66.47;;;32.70;;
13204;SDS011;6667;52.634;9.226;2024-03-22T09:46:17;69.53;;;34.33;;
13204;SDS011;6667;52.634;9.226;2024-03-22T09:48:46;71.27;;;33.63;;
13204;SDS011;6667;52.634;9.226;2024-03-22T09:51:14;58.80;;;32.90;;
13204;SDS011;6667;52.634;9.226;2024-03-22T09:53:42;59.60;;;32.67;;
13204;SDS011;6667;52.634;9.226;2024-03-22T09:56:10;60.07;;;32.13;;
13204;SDS011;6667;52.634;9.226;2024-03-22T09:58:39;60.37;;;33.83;;
13204;SDS011;6667;52.634;9.226;2024-03-22T10:01:05;60.77;;;34.10;;
13204;SDS011;6667;52.634;9.226;2024-03-22T10:03:32;54.90;;;31.50;;
13204;SDS011;6667;52.634;9.226;2024-03-22T10:05:59;54.80;;;32.13;;
13204;SDS011;6667;52.634;9.226;2024-03-22T10:08:26;57.07;;;30.43;;
13204;SDS011;6667;52.634;9.226;2024-03-22T10:10:52;56.40;;;31.30;;
13204;SDS011;6667;52.634;9.226;2024-03-22T10:13:19;52.00;;;30.60;;
13204;SDS011;6667;52.634;9.226;2024-03-22T10:15:45;57.43;;;30.60;;
13204;SDS011;6667;52.634;9.226;2024-03-22T10:18:12;54.00;;;30.60;;
13204;SDS011;6667;52.634;9.226;2024-03-22T10:20:39;55.03;;;30.57;;
13204;SDS011;6667;52.634;9.226;2024-03-22T10:23:07;55.30;;;29.93;;
13204;SDS011;6667;52.634;9.226;2024-03-22T10:25:34;52.30;;;29.73;;
13204;SDS011;6667;52.634;9.226;2024-03-22T10:28:00;51.77;;;28.97;;
13204;SDS011;6667;52.634;9.226;2024-03-22T10:30:26;48.87;;;27.87;;
13204;SDS011;6667;52.634;9.226;2024-03-22T10:32:55;49.30;;;25.77;;
13204;SDS011;6667;52.634;9.226;2024-03-22T10:35:21;43.13;;;26.47;;
13204;SDS011;6667;52.634;9.226;2024-03-22T10:37:48;41.90;;;26.23;;
13204;SDS011;6667;52.634;9.226;2024-03-22T10:40:16;46.77;;;26.90;;
13204;SDS011;6667;52.634;9.226;2024-03-22T10:42:43;40.37;;;24.57;;
13204;SDS011;6667;52.634;9.226;2024-03-22T10:45:10;41.27;;;23.60;;
13204;SDS011;6667;52.634;9.226;2024-03-22T10:47:38;39.33;;;22.53;;
13204;SDS011;6667;52.634;9.226;2024-03-22T10:50:05;42.40;;;24.47;;
13204;SDS011;6667;52.634;9.226;2024-03-22T10:52:34;38.97;;;23.23;;
13204;SDS011;6667;52.634;9.226;2024-03-22T10:55:03;37.77;;;22.43;;
13204;SDS011;6667;52.634;9.226;2024-03-22T10:57:34;37.57;;;21.60;;
13204;SDS011;6667;52.634;9.226;2024-03-22T11:00:02;36.97;;;22.10;;
13204;SDS011;6667;52.634;9.226;2024-03-22T11:02:35;37.07;;;22.47;;
13204;SDS011;6667;52.634;9.226;2024-03-22T11:05:01;36.90;;;22.23;;
13204;SDS011;6667;52.634;9.226;2024-03-22T11:07:31;34.73;;;21.03;;
13204;SDS011;6667;52.634;9.226;2024-03-22T11:09:56;33.37;;;20.67;;
13204;SDS011;6667;52.634;9.226;2024-03-22T11:12:24;36.23;;;21.33;;
13204;SDS011;6667;52.634;9.226;2024-03-22T11:14:51;36.37;;;20.53;;
13204;SDS011;6667;52.634;9.226;2024-03-22T11:17:19;36.43;;;21.07;;
13204;SDS011;6667;52.634;9.226;2024-03-22T11:19:44;40.73;;;21.43;;
13204;SDS011;6667;52.634;9.226;2024-03-22T11:22:11;33.10;;;20.90;;
13204;SDS011;6667;52.634;9.226;2024-03-22T11:24:38;32.07;;;21.13;;
13204;SDS011;6667;52.634;9.226;2024-03-22T11:27:04;34.50;;;20.60;;
13204;SDS011;6667;52.634;9.226;2024-03-22T11:29:30;33.80;;;20.83;;
13204;SDS011;6667;52.634;9.226;2024-03-22T11:31:58;33.73;;;20.47;;
13204;SDS011;6667;52.634;9.226;2024-03-22T11:34:25;31.47;;;19.30;;
13204;SDS011;6667;52.634;9.226;2024-03-22T11:36:51;35.93;;;20.90;;
13204;SDS011;6667;52.634;9.226;2024-03-22T11:39:19;32.60;;;20.13;;
13204;SDS011;6667;52.634;9.226;2024-03-22T11:41:46;34.97;;;22.17;;
13204;SDS011;6667;52.634;9.226;2024-03-22T11:44:15;34.77;;;21.03;;
13204;SDS011;6667;52.634;9.226;2024-03-22T11:46:43;34.53;;;20.77;;
13204;SDS011;6667;52.634;9.226;2024-03-22T11:49:11;32.93;;;20.13;;
13204;SDS011;6667;52.634;9.226;2024-03-22T11:51:37;32.33;;;18.43;;
13204;SDS011;6667;52.634;9.226;2024-03-22T11:54:04;34.87;;;18.83;;
13204;SDS011;6667;52.634;9.226;2024-03-22T11:56:34;35.43;;;18.80;;
13204;SDS011;6667;52.634;9.226;2024-03-22T11:59:01;33.50;;;19.03;;
13204;SDS011;6667;52.634;9.226;2024-03-22T12:01:28;32.17;;;17.83;;
13204;SDS011;6667;52.634;9.226;2024-03-22T12:03:55;31.20;;;18.73;;
13204;SDS011;6667;52.634;9.226;2024-03-22T12:06:22;31.80;;;18.83;;
13204;SDS011;6667;52.634;9.226;2024-03-22T12:08:49;31.60;;;17.57;;
13204;SDS011;6667;52.634;9.226;2024-03-22T12:11:15;31.43;;;18.30;;
13204;SDS011;6667;52.634;9.226;2024-03-22T12:13:42;30.60;;;18.27;;
13204;SDS011;6667;52.634;9.226;2024-03-22T12:16:08;29.43;;;17.90;;
13204;SDS011;6667;52.634;9.226;2024-03-22T12:18:34;32.03;;;16.90;;
13204;SDS011;6667;52.634;9.226;2024-03-22T12:21:00;32.63;;;18.37;;
13204;SDS011;6667;52.634;9.226;2024-03-22T12:23:28;29.67;;;16.47;;
13204;SDS011;6667;52.634;9.226;2024-03-22T12:25:54;29.03;;;18.00;;
13204;SDS011;6667;52.634;9.226;2024-03-22T12:28:21;27.50;;;17.23;;
13204;SDS011;6667;52.634;9.226;2024-03-22T12:30:47;28.27;;;17.07;;
13204;SDS011;6667;52.634;9.226;2024-03-22T12:33:14;28.23;;;15.17;;
13204;SDS011;6667;52.634;9.226;2024-03-22T12:35:40;25.47;;;15.87;;
13204;SDS011;6667;52.634;9.226;2024-03-22T12:38:07;27.20;;;17.13;;
13204;SDS011;6667;52.634;9.226;2024-03-22T12:40:36;26.77;;;16.47;;
13204;SDS011;6667;52.634;9.226;2024-03-22T12:43:03;23.40;;;14.83;;
13204;SDS011;6667;52.634;9.226;2024-03-22T12:45:29;28.10;;;15.97;;
13204;SDS011;6667;52.634;9.226;2024-03-22T12:47:56;29.83;;;16.43;;
13204;SDS011;6667;52.634;9.226;2024-03-22T12:50:21;24.47;;;14.53;;
13204;SDS011;6667;52.634;9.226;2024-03-22T12:52:48;24.20;;;14.20;;
13204;SDS011;6667;52.634;9.226;2024-03-22T12:55:14;23.03;;;14.63;;
13204;SDS011;6667;52.634;9.226;2024-03-22T12:57:42;19.87;;;13.47;;
13204;SDS011;6667;52.634;9.226;2024-03-22T13:00:08;22.77;;;13.10;;
13204;SDS011;6667;52.634;9.226;2024-03-22T13:02:39;20.53;;;13.07;;
13204;SDS011;6667;52.634;9.226;2024-03-22T13:05:05;20.20;;;12.67;;
13204;SDS011;6667;52.634;9.226;2024-03-22T13:07:33;22.33;;;12.63;;
13204;SDS011;6667;52.634;9.226;2024-03-22T13:09:58;20.17;;;13.47;;
13204;SDS011;6667;52.634;9.226;2024-03-22T13:12:26;21.97;;;12.60;;
13204;SDS011;6667;52.634;9.226;2024-03-22T13:14:53;22.97;;;14.10;;
13204;SDS011;6667;52.634;9.226;2024-03-22T13:17:19;20.90;;;13.30;;
13204;SDS011;6667;52.634;9.226;2024-03-22T13:19:45;24.00;;;14.13;;
13204;SDS011;6667;52.634;9.226;2024-03-22T13:22:12;22.00;;;14.37;;
13204;SDS011;6667;52.634;9.226;2024-03-22T13:24:38;23.57;;;14.17;;
13204;SDS011;6667;52.634;9.226;2024-03-22T13:27:04;22.27;;;13.17;;
13204;SDS011;6667;52.634;9.226;2024-03-22T13:29:30;20.33;;;11.73;;
13204;SDS011;6667;52.634;9.226;2024-03-22T13:31:58;19.53;;;12.93;;
13204;SDS011;6667;52.634;9.226;2024-03-22T13:34:24;19.53;;;12.60;;
13204;SDS011;6667;52.634;9.226;2024-03-22T13:36:51;20.00;;;11.70;;
13204;SDS011;6667;52.634;9.226;2024-03-22T13:39:17;20.43;;;12.67;;
13204;SDS011;6667;52.634;9.226;2024-03-22T13:41:43;20.67;;;13.20;;
13204;SDS011;6667;52.634;9.226;2024-03-22T13:44:10;18.90;;;12.00;;
13204;SDS011;6667;52.634;9.226;2024-03-22T13:46:36;20.40;;;12.43;;
13204;SDS011;6667;52.634;9.226;2024-03-22T13:49:12;19.30;;;11.40;;
13204;SDS011;6667;52.634;9.226;2024-03-22T13:51:40;21.70;;;12.20;;
13204;SDS011;6667;52.634;9.226;2024-03-22T13:54:07;19.67;;;11.70;;
13204;SDS011;6667;52.634;9.226;2024-03-22T13:56:33;16.47;;;10.77;;
13204;SDS011;6667;52.634;9.226;2024-03-22T13:58:59;16.60;;;10.93;;
13204;SDS011;6667;52.634;9.226;2024-03-22T14:01:25;18.20;;;9.97;;
13204;SDS011;6667;52.634;9.226;2024-03-22T14:03:52;16.30;;;10.30;;
13204;SDS011;6667;52.634;9.226;2024-03-22T14:06:19;15.67;;;10.23;;
13204;SDS011;6667;52.634;9.226;2024-03-22T14:08:46;13.87;;;9.70;;
13204;SDS011;6667;52.634;9.226;2024-03-22T14:11:11;16.63;;;9.47;;
13204;SDS011;6667;52.634;9.226;2024-03-22T14:13:38;14.63;;;9.07;;
13204;SDS011;6667;52.634;9.226;2024-03-22T14:16:04;16.00;;;10.60;;
13204;SDS011;6667;52.634;9.226;2024-03-22T14:18:32;16.67;;;9.80;;
13204;SDS011;6667;52.634;9.226;2024-03-22T14:21:00;18.57;;;10.10;;
13204;SDS011;6667;52.634;9.226;2024-03-22T14:23:27;13.47;;;9.13;;
13204;SDS011;6667;52.634;9.226;2024-03-22T14:25:54;12.30;;;7.80;;
13204;SDS011;6667;52.634;9.226;2024-03-22T14:28:20;13.27;;;7.97;;
13204;SDS011;6667;52.634;9.226;2024-03-22T14:30:47;12.17;;;7.77;;
13204;SDS011;6667;52.634;9.226;2024-03-22T14:33:12;11.87;;;7.43;;